sensor_id;sensor_type;location;lat;lon;timestamp;P1;durP1;ratioP1;P2;durP2;ratioP2
60372;SDS011;46216;52.220;5.134;2023-02-28T00:00:15;4.63;;;1.75;;
60372;SDS011;46216;52.220;5.134;2023-02-28T00:02:41;3.67;;;1.75;;
60372;SDS011;46216;52.220;5.134;2023-02-28T00:05:07;3.30;;;1.52;;
60372;SDS011;46216;52.220;5.134;2023-02-28T00:07:34;3.80;;;1.98;;
60372;SDS011;46216;52.220;5.134;2023-02-28T00:09:59;6.38;;;1.83;;
60372;SDS011;46216;52.220;5.134;2023-02-28T00:12:25;4.72;;;2.00;;
60372;SDS011;46216;52.220;5.134;2023-02-28T00:14:51;5.70;;;1.85;;
60372;SDS011;46216;52.220;5.134;2023-02-28T00:17:16;4.18;;;1.88;;
60372;SDS011;46216;52.220;5.134;2023-02-28T00:19:48;3.78;;;1.75;;
60372;SDS011;46216;52.220;5.134;2023-02-28T00:22:15;5.70;;;1.80;;
60372;SDS011;46216;52.220;5.134;2023-02-28T00:24:41;3.95;;;1.77;;
60372;SDS011;46216;52.220;5.134;2023-02-28T00:27:07;3.80;;;1.80;;
60372;SDS011;46216;52.220;5.134;2023-02-28T00:29:32;4.05;;;1.65;;
60372;SDS011;46216;52.220;5.134;2023-02-28T00:31:57;2.30;;;1.50;;
60372;SDS011;46216;52.220;5.134;2023-02-28T00:34:23;2.88;;;1.65;;
60372;SDS011;46216;52.220;5.134;2023-02-28T00:36:48;3.10;;;1.60;;
60372;SDS011;46216;52.220;5.134;2023-02-28T00:39:14;4.47;;;2.10;;
60372;SDS011;46216;52.220;5.134;2023-02-28T00:41:39;4.07;;;1.60;;
60372;SDS011;46216;52.220;5.134;2023-02-28T00:44:04;3.95;;;1.73;;
60372;SDS011;46216;52.220;5.134;2023-02-28T00:46:31;5.07;;;1.80;;
60372;SDS011;46216;52.220;5.134;2023-02-28T00:48:56;5.35;;;1.85;;
60372;SDS011;46216;52.220;5.134;2023-02-28T00:51:21;4.47;;;1.77;;
60372;SDS011;46216;52.220;5.134;2023-02-28T00:53:48;5.65;;;2.03;;
60372;SDS011;46216;52.220;5.134;2023-02-28T00:56:13;4.80;;;1.60;;
60372;SDS011;46216;52.220;5.134;2023-02-28T00:58:39;3.75;;;1.80;;
60372;SDS011;46216;52.220;5.134;2023-02-28T01:01:05;2.80;;;1.75;;
60372;SDS011;46216;52.220;5.134;2023-02-28T01:03:30;4.70;;;2.00;;
60372;SDS011;46216;52.220;5.134;2023-02-28T01:05:56;3.33;;;2.03;;
60372;SDS011;46216;52.220;5.134;2023-02-28T01:08:21;4.15;;;1.60;;
60372;SDS011;46216;52.220;5.134;2023-02-28T01:10:47;5.10;;;1.85;;
60372;SDS011;46216;52.220;5.134;2023-02-28T01:13:13;3.70;;;1.90;;
60372;SDS011;46216;52.220;5.134;2023-02-28T01:15:43;3.00;;;1.92;;
60372;SDS011;46216;52.220;5.134;2023-02-28T01:18:13;3.50;;;1.88;;
60372;SDS011;46216;52.220;5.134;2023-02-28T01:20:39;5.97;;;1.88;;
60372;SDS011;46216;52.220;5.134;2023-02-28T01:23:05;2.72;;;1.85;;
60372;SDS011;46216;52.220;5.134;2023-02-28T01:25:30;3.92;;;1.58;;
60372;SDS011;46216;52.220;5.134;2023-02-28T01:27:55;5.13;;;2.10;;
60372;SDS011;46216;52.220;5.134;2023-02-28T01:30:21;4.25;;;1.75;;
60372;SDS011;46216;52.220;5.134;2023-02-28T01:32:46;3.47;;;1.77;;
60372;SDS011;46216;52.220;5.134;2023-02-28T01:35:11;3.53;;;1.65;;
60372;SDS011;46216;52.220;5.134;2023-02-28T01:37:37;4.03;;;1.83;;
60372;SDS011;46216;52.220;5.134;2023-02-28T01:40:03;3.13;;;1.80;;
60372;SDS011;46216;52.220;5.134;2023-02-28T01:42:28;3.55;;;1.88;;
60372;SDS011;46216;52.220;5.134;2023-02-28T01:44:58;3.53;;;1.75;;
60372;SDS011;46216;52.220;5.134;2023-02-28T01:47:35;4.07;;;1.70;;
60372;SDS011;46216;52.220;5.134;2023-02-28T01:50:04;2.85;;;1.70;;
60372;SDS011;46216;52.220;5.134;2023-02-28T01:52:33;3.60;;;1.80;;
60372;SDS011;46216;52.220;5.134;2023-02-28T01:54:59;3.28;;;2.00;;
60372;SDS011;46216;52.220;5.134;2023-02-28T01:57:35;3.42;;;1.70;;
60372;SDS011;46216;52.220;5.134;2023-02-28T02:00:08;3.28;;;1.90;;
60372;SDS011;46216;52.220;5.134;2023-02-28T02:02:40;3.90;;;1.80;;
60372;SDS011;46216;52.220;5.134;2023-02-28T02:05:10;3.28;;;1.80;;
60372;SDS011;46216;52.220;5.134;2023-02-28T02:07:39;3.72;;;2.10;;
60372;SDS011;46216;52.220;5.134;2023-02-28T02:12:55;4.70;;;1.80;;
60372;SDS011;46216;52.220;5.134;2023-02-28T02:18:08;4.47;;;1.95;;
60372;SDS011;46216;52.220;5.134;2023-02-28T02:23:42;5.10;;;2.00;;
60372;SDS011;46216;52.220;5.134;2023-02-28T02:26:19;4.10;;;1.85;;
60372;SDS011;46216;52.220;5.134;2023-02-28T02:35:07;2.42;;;1.77;;
60372;SDS011;46216;52.220;5.134;2023-02-28T02:37:47;2.83;;;1.55;;
60372;SDS011;46216;52.220;5.134;2023-02-28T02:40:20;4.63;;;1.98;;
60372;SDS011;46216;52.220;5.134;2023-02-28T02:42:50;5.15;;;1.90;;
60372;SDS011;46216;52.220;5.134;2023-02-28T02:45:26;3.92;;;2.05;;
60372;SDS011;46216;52.220;5.134;2023-02-28T02:48:01;3.63;;;2.05;;
60372;SDS011;46216;52.220;5.134;2023-02-28T02:50:48;5.38;;;2.15;;
60372;SDS011;46216;52.220;5.134;2023-02-28T02:53:17;3.15;;;2.17;;
60372;SDS011;46216;52.220;5.134;2023-02-28T02:55:47;3.80;;;2.25;;
60372;SDS011;46216;52.220;5.134;2023-02-28T02:58:19;3.60;;;2.03;;
60372;SDS011;46216;52.220;5.134;2023-02-28T03:00:51;3.42;;;2.00;;
60372;SDS011;46216;52.220;5.134;2023-02-28T03:03:19;6.10;;;2.72;;
60372;SDS011;46216;52.220;5.134;2023-02-28T03:05:53;5.15;;;2.03;;
60372;SDS011;46216;52.220;5.134;2023-02-28T03:08:20;5.32;;;2.30;;
60372;SDS011;46216;52.220;5.134;2023-02-28T03:10:46;4.38;;;2.22;;
60372;SDS011;46216;52.220;5.134;2023-02-28T03:16:12;6.13;;;2.55;;
60372;SDS011;46216;52.220;5.134;2023-02-28T03:24:48;3.65;;;2.40;;
60372;SDS011;46216;52.220;5.134;2023-02-28T03:27:24;5.57;;;2.75;;
60372;SDS011;46216;52.220;5.134;2023-02-28T03:32:32;3.63;;;2.35;;
60372;SDS011;46216;52.220;5.134;2023-02-28T03:35:04;4.65;;;2.67;;
60372;SDS011;46216;52.220;5.134;2023-02-28T03:37:35;5.57;;;3.22;;
60372;SDS011;46216;52.220;5.134;2023-02-28T03:40:08;3.92;;;2.33;;
60372;SDS011;46216;52.220;5.134;2023-02-28T03:42:38;5.57;;;2.80;;
60372;SDS011;46216;52.220;5.134;2023-02-28T03:45:17;4.55;;;2.67;;
60372;SDS011;46216;52.220;5.134;2023-02-28T03:48:00;7.13;;;2.90;;
60372;SDS011;46216;52.220;5.134;2023-02-28T03:50:41;4.68;;;2.72;;
60372;SDS011;46216;52.220;5.134;2023-02-28T03:58:54;5.90;;;3.25;;
60372;SDS011;46216;52.220;5.134;2023-02-28T04:01:27;9.68;;;3.55;;
60372;SDS011;46216;52.220;5.134;2023-02-28T04:04:01;7.40;;;3.78;;
60372;SDS011;46216;52.220;5.134;2023-02-28T04:06:27;5.70;;;3.00;;
60372;SDS011;46216;52.220;5.134;2023-02-28T04:08:55;5.97;;;3.15;;
60372;SDS011;46216;52.220;5.134;2023-02-28T04:11:27;5.43;;;3.28;;
60372;SDS011;46216;52.220;5.134;2023-02-28T04:14:00;4.35;;;3.20;;
60372;SDS011;46216;52.220;5.134;2023-02-28T04:16:27;7.25;;;3.40;;
60372;SDS011;46216;52.220;5.134;2023-02-28T04:18:53;4.63;;;3.22;;
60372;SDS011;46216;52.220;5.134;2023-02-28T04:21:18;5.72;;;3.45;;
60372;SDS011;46216;52.220;5.134;2023-02-28T04:23:47;7.68;;;3.50;;
60372;SDS011;46216;52.220;5.134;2023-02-28T04:26:12;4.97;;;3.55;;
60372;SDS011;46216;52.220;5.134;2023-02-28T04:28:37;6.43;;;3.90;;
60372;SDS011;46216;52.220;5.134;2023-02-28T04:31:04;6.13;;;3.55;;
60372;SDS011;46216;52.220;5.134;2023-02-28T04:33:30;7.15;;;4.15;;
60372;SDS011;46216;52.220;5.134;2023-02-28T04:36:14;7.80;;;3.92;;
60372;SDS011;46216;52.220;5.134;2023-02-28T04:38:42;8.50;;;3.90;;
60372;SDS011;46216;52.220;5.134;2023-02-28T04:41:08;8.15;;;4.18;;
60372;SDS011;46216;52.220;5.134;2023-02-28T04:43:34;9.15;;;4.50;;
60372;SDS011;46216;52.220;5.134;2023-02-28T04:46:00;6.78;;;4.15;;
60372;SDS011;46216;52.220;5.134;2023-02-28T04:48:28;10.00;;;5.10;;
60372;SDS011;46216;52.220;5.134;2023-02-28T04:50:54;7.05;;;4.00;;
60372;SDS011;46216;52.220;5.134;2023-02-28T04:53:20;8.52;;;5.28;;
60372;SDS011;46216;52.220;5.134;2023-02-28T04:55:46;8.82;;;5.30;;
60372;SDS011;46216;52.220;5.134;2023-02-28T04:58:12;6.97;;;5.30;;
60372;SDS011;46216;52.220;5.134;2023-02-28T05:00:39;8.13;;;5.43;;
60372;SDS011;46216;52.220;5.134;2023-02-28T05:03:04;9.73;;;6.03;;
60372;SDS011;46216;52.220;5.134;2023-02-28T05:05:30;8.50;;;5.22;;
60372;SDS011;46216;52.220;5.134;2023-02-28T05:07:55;8.18;;;5.88;;
60372;SDS011;46216;52.220;5.134;2023-02-28T05:10:24;10.45;;;6.53;;
60372;SDS011;46216;52.220;5.134;2023-02-28T05:12:49;10.48;;;7.25;;
60372;SDS011;46216;52.220;5.134;2023-02-28T05:15:15;10.43;;;7.18;;
60372;SDS011;46216;52.220;5.134;2023-02-28T05:17:41;8.63;;;5.95;;
60372;SDS011;46216;52.220;5.134;2023-02-28T05:20:07;7.63;;;4.70;;
60372;SDS011;46216;52.220;5.134;2023-02-28T05:22:36;7.13;;;4.60;;
60372;SDS011;46216;52.220;5.134;2023-02-28T05:25:02;5.78;;;4.40;;
60372;SDS011;46216;52.220;5.134;2023-02-28T05:27:29;5.78;;;4.15;;
60372;SDS011;46216;52.220;5.134;2023-02-28T05:29:55;5.35;;;3.78;;
60372;SDS011;46216;52.220;5.134;2023-02-28T05:32:20;6.28;;;3.63;;
60372;SDS011;46216;52.220;5.134;2023-02-28T05:34:46;4.97;;;3.40;;
60372;SDS011;46216;52.220;5.134;2023-02-28T05:37:12;4.85;;;3.53;;
60372;SDS011;46216;52.220;5.134;2023-02-28T05:39:38;6.00;;;3.05;;
60372;SDS011;46216;52.220;5.134;2023-02-28T05:42:03;7.10;;;3.47;;
60372;SDS011;46216;52.220;5.134;2023-02-28T05:44:29;5.07;;;3.00;;
60372;SDS011;46216;52.220;5.134;2023-02-28T05:46:54;5.32;;;3.17;;
60372;SDS011;46216;52.220;5.134;2023-02-28T05:49:20;5.57;;;3.42;;
60372;SDS011;46216;52.220;5.134;2023-02-28T05:51:45;5.82;;;2.80;;
60372;SDS011;46216;52.220;5.134;2023-02-28T05:54:10;4.78;;;2.83;;
60372;SDS011;46216;52.220;5.134;2023-02-28T05:56:36;4.20;;;2.80;;
60372;SDS011;46216;52.220;5.134;2023-02-28T05:59:04;3.75;;;2.72;;
60372;SDS011;46216;52.220;5.134;2023-02-28T06:04:06;3.65;;;2.60;;
60372;SDS011;46216;52.220;5.134;2023-02-28T06:06:33;4.22;;;2.40;;
60372;SDS011;46216;52.220;5.134;2023-02-28T06:09:02;4.82;;;2.63;;
60372;SDS011;46216;52.220;5.134;2023-02-28T06:11:30;4.20;;;3.13;;
60372;SDS011;46216;52.220;5.134;2023-02-28T06:13:57;5.82;;;3.83;;
60372;SDS011;46216;52.220;5.134;2023-02-28T06:16:24;6.70;;;2.78;;
60372;SDS011;46216;52.220;5.134;2023-02-28T06:18:51;5.22;;;2.78;;
60372;SDS011;46216;52.220;5.134;2023-02-28T06:21:17;4.90;;;2.70;;
60372;SDS011;46216;52.220;5.134;2023-02-28T06:23:43;8.48;;;3.00;;
60372;SDS011;46216;52.220;5.134;2023-02-28T06:26:09;4.93;;;2.72;;
60372;SDS011;46216;52.220;5.134;2023-02-28T06:28:34;4.50;;;3.08;;
60372;SDS011;46216;52.220;5.134;2023-02-28T06:31:04;3.97;;;2.53;;
60372;SDS011;46216;52.220;5.134;2023-02-28T06:33:31;4.40;;;3.10;;
60372;SDS011;46216;52.220;5.134;2023-02-28T06:35:57;4.25;;;2.95;;
60372;SDS011;46216;52.220;5.134;2023-02-28T06:38:22;6.70;;;3.20;;
60372;SDS011;46216;52.220;5.134;2023-02-28T06:40:54;6.05;;;3.30;;
60372;SDS011;46216;52.220;5.134;2023-02-28T06:43:20;5.65;;;3.05;;
60372;SDS011;46216;52.220;5.134;2023-02-28T06:45:46;5.10;;;3.22;;
60372;SDS011;46216;52.220;5.134;2023-02-28T06:48:11;6.10;;;4.18;;
60372;SDS011;46216;52.220;5.134;2023-02-28T06:50:37;5.47;;;3.65;;
60372;SDS011;46216;52.220;5.134;2023-02-28T06:53:03;4.95;;;3.42;;
60372;SDS011;46216;52.220;5.134;2023-02-28T06:55:28;4.53;;;3.92;;
60372;SDS011;46216;52.220;5.134;2023-02-28T06:57:53;5.90;;;3.60;;
60372;SDS011;46216;52.220;5.134;2023-02-28T07:00:20;5.40;;;4.00;;
60372;SDS011;46216;52.220;5.134;2023-02-28T07:02:46;5.90;;;3.50;;
60372;SDS011;46216;52.220;5.134;2023-02-28T07:05:12;6.53;;;4.10;;
60372;SDS011;46216;52.220;5.134;2023-02-28T07:07:38;5.10;;;4.00;;
60372;SDS011;46216;52.220;5.134;2023-02-28T07:10:05;4.78;;;3.67;;
60372;SDS011;46216;52.220;5.134;2023-02-28T07:12:31;8.75;;;4.20;;
60372;SDS011;46216;52.220;5.134;2023-02-28T07:14:57;5.97;;;3.92;;
60372;SDS011;46216;52.220;5.134;2023-02-28T07:17:22;5.07;;;4.28;;
60372;SDS011;46216;52.220;5.134;2023-02-28T07:19:47;7.22;;;4.47;;
60372;SDS011;46216;52.220;5.134;2023-02-28T07:22:13;7.45;;;4.50;;
60372;SDS011;46216;52.220;5.134;2023-02-28T07:24:38;7.97;;;4.82;;
60372;SDS011;46216;52.220;5.134;2023-02-28T07:27:03;6.10;;;4.53;;
60372;SDS011;46216;52.220;5.134;2023-02-28T07:29:29;7.28;;;4.68;;
60372;SDS011;46216;52.220;5.134;2023-02-28T07:31:54;8.20;;;4.82;;
60372;SDS011;46216;52.220;5.134;2023-02-28T07:34:20;7.97;;;4.82;;
60372;SDS011;46216;52.220;5.134;2023-02-28T07:36:46;11.90;;;5.75;;
60372;SDS011;46216;52.220;5.134;2023-02-28T07:39:12;7.57;;;4.85;;
60372;SDS011;46216;52.220;5.134;2023-02-28T07:41:37;7.57;;;4.85;;
60372;SDS011;46216;52.220;5.134;2023-02-28T07:44:08;7.00;;;5.10;;
60372;SDS011;46216;52.220;5.134;2023-02-28T07:46:34;7.30;;;5.82;;
60372;SDS011;46216;52.220;5.134;2023-02-28T07:49:01;7.90;;;5.78;;
60372;SDS011;46216;52.220;5.134;2023-02-28T07:51:28;6.72;;;5.57;;
60372;SDS011;46216;52.220;5.134;2023-02-28T07:53:54;8.30;;;5.97;;
60372;SDS011;46216;52.220;5.134;2023-02-28T07:56:20;10.10;;;5.80;;
60372;SDS011;46216;52.220;5.134;2023-02-28T07:58:45;9.88;;;5.68;;
60372;SDS011;46216;52.220;5.134;2023-02-28T08:01:11;11.55;;;6.13;;
60372;SDS011;46216;52.220;5.134;2023-02-28T08:03:37;7.30;;;5.65;;
60372;SDS011;46216;52.220;5.134;2023-02-28T08:06:03;7.95;;;5.65;;
60372;SDS011;46216;52.220;5.134;2023-02-28T08:08:30;8.48;;;6.18;;
60372;SDS011;46216;52.220;5.134;2023-02-28T08:11:00;7.90;;;6.38;;
60372;SDS011;46216;52.220;5.134;2023-02-28T08:13:27;8.85;;;6.53;;
60372;SDS011;46216;52.220;5.134;2023-02-28T08:15:53;9.00;;;6.35;;
60372;SDS011;46216;52.220;5.134;2023-02-28T08:18:19;9.88;;;6.28;;
60372;SDS011;46216;52.220;5.134;2023-02-28T08:20:45;10.15;;;5.65;;
60372;SDS011;46216;52.220;5.134;2023-02-28T08:23:11;10.23;;;5.70;;
60372;SDS011;46216;52.220;5.134;2023-02-28T08:25:36;8.60;;;5.95;;
60372;SDS011;46216;52.220;5.134;2023-02-28T08:28:01;7.70;;;5.38;;
60372;SDS011;46216;52.220;5.134;2023-02-28T08:30:27;8.23;;;5.68;;
60372;SDS011;46216;52.220;5.134;2023-02-28T08:32:52;7.47;;;5.50;;
60372;SDS011;46216;52.220;5.134;2023-02-28T08:35:17;9.18;;;5.88;;
60372;SDS011;46216;52.220;5.134;2023-02-28T08:37:42;8.15;;;5.57;;
60372;SDS011;46216;52.220;5.134;2023-02-28T08:40:08;9.07;;;5.55;;
60372;SDS011;46216;52.220;5.134;2023-02-28T08:42:34;6.53;;;5.57;;
60372;SDS011;46216;52.220;5.134;2023-02-28T08:45:00;7.65;;;5.88;;
60372;SDS011;46216;52.220;5.134;2023-02-28T08:47:28;8.55;;;5.57;;
60372;SDS011;46216;52.220;5.134;2023-02-28T08:49:53;8.40;;;5.75;;
60372;SDS011;46216;52.220;5.134;2023-02-28T08:52:18;7.28;;;5.85;;
60372;SDS011;46216;52.220;5.134;2023-02-28T08:54:44;9.07;;;6.00;;
60372;SDS011;46216;52.220;5.134;2023-02-28T08:57:09;9.20;;;6.68;;
60372;SDS011;46216;52.220;5.134;2023-02-28T08:59:34;10.05;;;6.82;;
60372;SDS011;46216;52.220;5.134;2023-02-28T09:02:00;11.60;;;7.25;;
60372;SDS011;46216;52.220;5.134;2023-02-28T09:04:25;13.40;;;7.43;;
60372;SDS011;46216;52.220;5.134;2023-02-28T09:06:50;11.85;;;7.93;;
60372;SDS011;46216;52.220;5.134;2023-02-28T09:09:16;10.93;;;6.82;;
60372;SDS011;46216;52.220;5.134;2023-02-28T09:11:41;9.13;;;6.13;;
60372;SDS011;46216;52.220;5.134;2023-02-28T09:14:07;9.40;;;5.70;;
60372;SDS011;46216;52.220;5.134;2023-02-28T09:16:33;7.40;;;4.78;;
60372;SDS011;46216;52.220;5.134;2023-02-28T09:18:59;7.97;;;5.03;;
60372;SDS011;46216;52.220;5.134;2023-02-28T09:21:25;7.47;;;4.80;;
60372;SDS011;46216;52.220;5.134;2023-02-28T09:23:51;7.80;;;4.50;;
60372;SDS011;46216;52.220;5.134;2023-02-28T09:26:21;8.60;;;4.60;;
60372;SDS011;46216;52.220;5.134;2023-02-28T09:28:52;6.35;;;4.15;;
60372;SDS011;46216;52.220;5.134;2023-02-28T09:31:21;6.18;;;3.92;;
60372;SDS011;46216;52.220;5.134;2023-02-28T09:33:52;6.90;;;3.85;;
60372;SDS011;46216;52.220;5.134;2023-02-28T09:36:21;5.45;;;3.83;;
60372;SDS011;46216;52.220;5.134;2023-02-28T09:38:48;7.13;;;3.75;;
60372;SDS011;46216;52.220;5.134;2023-02-28T09:41:17;4.22;;;3.47;;
60372;SDS011;46216;52.220;5.134;2023-02-28T09:43:44;5.35;;;3.35;;
60372;SDS011;46216;52.220;5.134;2023-02-28T09:46:16;5.05;;;3.40;;
60372;SDS011;46216;52.220;5.134;2023-02-28T09:48:50;4.70;;;2.95;;
60372;SDS011;46216;52.220;5.134;2023-02-28T09:54:05;4.18;;;3.22;;
60372;SDS011;46216;52.220;5.134;2023-02-28T09:56:37;3.38;;;2.63;;
60372;SDS011;46216;52.220;5.134;2023-02-28T10:06:53;2.90;;;2.58;;
60372;SDS011;46216;52.220;5.134;2023-02-28T10:09:24;3.25;;;2.70;;
60372;SDS011;46216;52.220;5.134;2023-02-28T10:11:52;3.35;;;2.70;;
60372;SDS011;46216;52.220;5.134;2023-02-28T10:14:21;3.45;;;2.60;;
60372;SDS011;46216;52.220;5.134;2023-02-28T10:16:59;3.67;;;2.55;;
60372;SDS011;46216;52.220;5.134;2023-02-28T10:24:51;4.47;;;2.80;;
60372;SDS011;46216;52.220;5.134;2023-02-28T10:27:26;3.47;;;3.00;;
60372;SDS011;46216;52.220;5.134;2023-02-28T10:29:58;4.57;;;2.55;;
60372;SDS011;46216;52.220;5.134;2023-02-28T10:32:30;3.33;;;2.70;;
60372;SDS011;46216;52.220;5.134;2023-02-28T10:35:15;2.95;;;2.40;;
60372;SDS011;46216;52.220;5.134;2023-02-28T10:37:47;3.30;;;2.47;;
60372;SDS011;46216;52.220;5.134;2023-02-28T10:45:27;4.60;;;2.60;;
60372;SDS011;46216;52.220;5.134;2023-02-28T10:47:56;3.10;;;2.33;;
60372;SDS011;46216;52.220;5.134;2023-02-28T10:50:27;3.65;;;2.40;;
60372;SDS011;46216;52.220;5.134;2023-02-28T10:52:57;3.92;;;2.40;;
60372;SDS011;46216;52.220;5.134;2023-02-28T10:55:33;2.92;;;2.45;;
60372;SDS011;46216;52.220;5.134;2023-02-28T10:57:58;3.15;;;2.30;;
60372;SDS011;46216;52.220;5.134;2023-02-28T11:00:24;2.20;;;1.75;;
60372;SDS011;46216;52.220;5.134;2023-02-28T11:02:50;3.15;;;2.05;;
60372;SDS011;46216;52.220;5.134;2023-02-28T11:10:54;1.85;;;1.55;;
60372;SDS011;46216;52.220;5.134;2023-02-28T11:13:32;3.55;;;1.70;;
60372;SDS011;46216;52.220;5.134;2023-02-28T11:15:59;3.03;;;1.65;;
60372;SDS011;46216;52.220;5.134;2023-02-28T11:18:29;2.53;;;1.50;;
60372;SDS011;46216;52.220;5.134;2023-02-28T11:21:05;1.70;;;1.35;;
60372;SDS011;46216;52.220;5.134;2023-02-28T11:23:33;2.08;;;1.50;;
60372;SDS011;46216;52.220;5.134;2023-02-28T11:26:02;1.90;;;1.55;;
60372;SDS011;46216;52.220;5.134;2023-02-28T11:31:00;2.40;;;1.65;;
60372;SDS011;46216;52.220;5.134;2023-02-28T11:36:25;3.00;;;1.48;;
60372;SDS011;46216;52.220;5.134;2023-02-28T11:38:55;1.80;;;1.60;;
60372;SDS011;46216;52.220;5.134;2023-02-28T11:44:04;2.22;;;1.65;;
60372;SDS011;46216;52.220;5.134;2023-02-28T11:47:05;1.95;;;1.50;;
60372;SDS011;46216;52.220;5.134;2023-02-28T11:49:36;2.33;;;1.70;;
60372;SDS011;46216;52.220;5.134;2023-02-28T11:52:25;2.33;;;1.80;;
60372;SDS011;46216;52.220;5.134;2023-02-28T12:05:57;2.58;;;1.50;;
60372;SDS011;46216;52.220;5.134;2023-02-28T12:08:43;1.90;;;1.70;;
60372;SDS011;46216;52.220;5.134;2023-02-28T12:14:06;2.05;;;1.60;;
60372;SDS011;46216;52.220;5.134;2023-02-28T12:27:37;2.17;;;1.55;;
60372;SDS011;46216;52.220;5.134;2023-02-28T12:30:27;2.80;;;1.60;;
60372;SDS011;46216;52.220;5.134;2023-02-28T12:32:53;2.83;;;2.05;;
60372;SDS011;46216;52.220;5.134;2023-02-28T12:35:34;1.92;;;1.55;;
60372;SDS011;46216;52.220;5.134;2023-02-28T12:38:14;1.92;;;1.38;;
60372;SDS011;46216;52.220;5.134;2023-02-28T12:41:04;2.03;;;1.50;;
60372;SDS011;46216;52.220;5.134;2023-02-28T12:43:37;2.03;;;1.63;;
60372;SDS011;46216;52.220;5.134;2023-02-28T12:48:47;1.67;;;1.40;;
60372;SDS011;46216;52.220;5.134;2023-02-28T12:51:16;1.90;;;1.60;;
60372;SDS011;46216;52.220;5.134;2023-02-28T12:59:14;2.35;;;1.80;;
60372;SDS011;46216;52.220;5.134;2023-02-28T13:08:30;1.90;;;1.55;;
60372;SDS011;46216;52.220;5.134;2023-02-28T13:10:42;1.83;;;1.60;;
60372;SDS011;46216;52.220;5.134;2023-02-28T13:13:16;2.67;;;1.80;;
60372;SDS011;46216;52.220;5.134;2023-02-28T13:21:02;2.53;;;1.73;;
60372;SDS011;46216;52.220;5.134;2023-02-28T13:23:56;1.63;;;1.52;;
60372;SDS011;46216;52.220;5.134;2023-02-28T13:29:01;1.88;;;1.65;;
60372;SDS011;46216;52.220;5.134;2023-02-28T13:31:30;2.08;;;1.55;;
60372;SDS011;46216;52.220;5.134;2023-02-28T13:34:11;1.90;;;1.50;;
60372;SDS011;46216;52.220;5.134;2023-02-28T13:36:38;2.22;;;1.40;;
60372;SDS011;46216;52.220;5.134;2023-02-28T13:39:45;1.48;;;1.33;;
60372;SDS011;46216;52.220;5.134;2023-02-28T13:47:52;2.65;;;1.50;;
60372;SDS011;46216;52.220;5.134;2023-02-28T13:52:57;2.65;;;1.73;;
60372;SDS011;46216;52.220;5.134;2023-02-28T13:55:53;2.10;;;1.85;;
60372;SDS011;46216;52.220;5.134;2023-02-28T13:58:25;1.58;;;1.48;;
60372;SDS011;46216;52.220;5.134;2023-02-28T14:06:36;1.90;;;1.48;;
60372;SDS011;46216;52.220;5.134;2023-02-28T14:11:44;2.72;;;1.80;;
60372;SDS011;46216;52.220;5.134;2023-02-28T14:14:53;2.83;;;1.35;;
60372;SDS011;46216;52.220;5.134;2023-02-28T14:17:05;2.00;;;1.63;;
60372;SDS011;46216;52.220;5.134;2023-02-28T14:19:34;2.40;;;1.60;;
60372;SDS011;46216;52.220;5.134;2023-02-28T14:30:28;2.15;;;1.60;;
60372;SDS011;46216;52.220;5.134;2023-02-28T14:38:46;1.85;;;1.33;;
60372;SDS011;46216;52.220;5.134;2023-02-28T14:41:18;1.77;;;1.58;;
60372;SDS011;46216;52.220;5.134;2023-02-28T14:43:57;1.90;;;1.70;;
60372;SDS011;46216;52.220;5.134;2023-02-28T14:46:25;3.00;;;1.77;;
60372;SDS011;46216;52.220;5.134;2023-02-28T14:48:54;2.10;;;1.50;;
60372;SDS011;46216;52.220;5.134;2023-02-28T14:51:22;1.77;;;1.55;;
60372;SDS011;46216;52.220;5.134;2023-02-28T14:53:50;1.90;;;1.70;;
60372;SDS011;46216;52.220;5.134;2023-02-28T14:56:22;2.00;;;1.70;;
60372;SDS011;46216;52.220;5.134;2023-02-28T14:58:51;1.85;;;1.60;;
60372;SDS011;46216;52.220;5.134;2023-02-28T15:01:19;2.20;;;1.70;;
60372;SDS011;46216;52.220;5.134;2023-02-28T15:03:46;2.25;;;1.60;;
60372;SDS011;46216;52.220;5.134;2023-02-28T15:06:13;2.75;;;1.60;;
60372;SDS011;46216;52.220;5.134;2023-02-28T15:08:41;1.83;;;1.60;;
60372;SDS011;46216;52.220;5.134;2023-02-28T15:11:17;2.17;;;1.60;;
60372;SDS011;46216;52.220;5.134;2023-02-28T15:13:47;1.98;;;1.63;;
60372;SDS011;46216;52.220;5.134;2023-02-28T15:16:16;1.92;;;1.65;;
60372;SDS011;46216;52.220;5.134;2023-02-28T15:18:57;1.85;;;1.65;;
60372;SDS011;46216;52.220;5.134;2023-02-28T15:21:28;2.20;;;1.75;;
60372;SDS011;46216;52.220;5.134;2023-02-28T15:23:57;2.33;;;1.70;;
60372;SDS011;46216;52.220;5.134;2023-02-28T15:26:28;2.45;;;1.67;;
60372;SDS011;46216;52.220;5.134;2023-02-28T15:29:00;1.95;;;1.70;;
60372;SDS011;46216;52.220;5.134;2023-02-28T15:31:31;3.63;;;2.05;;
60372;SDS011;46216;52.220;5.134;2023-02-28T15:34:03;2.72;;;1.70;;
60372;SDS011;46216;52.220;5.134;2023-02-28T15:36:31;3.08;;;1.88;;
60372;SDS011;46216;52.220;5.134;2023-02-28T15:39:01;2.00;;;1.70;;
60372;SDS011;46216;52.220;5.134;2023-02-28T15:41:35;2.92;;;1.70;;
60372;SDS011;46216;52.220;5.134;2023-02-28T15:46:56;2.05;;;1.70;;
60372;SDS011;46216;52.220;5.134;2023-02-28T15:49:26;2.90;;;1.90;;
60372;SDS011;46216;52.220;5.134;2023-02-28T15:51:53;3.65;;;1.80;;
60372;SDS011;46216;52.220;5.134;2023-02-28T15:54:24;3.58;;;1.85;;
60372;SDS011;46216;52.220;5.134;2023-02-28T15:56:53;2.70;;;1.90;;
60372;SDS011;46216;52.220;5.134;2023-02-28T15:59:23;2.75;;;1.90;;
60372;SDS011;46216;52.220;5.134;2023-02-28T16:04:35;3.42;;;2.05;;
60372;SDS011;46216;52.220;5.134;2023-02-28T16:07:02;3.35;;;2.08;;
60372;SDS011;46216;52.220;5.134;2023-02-28T16:09:29;2.60;;;2.08;;
60372;SDS011;46216;52.220;5.134;2023-02-28T16:11:56;2.92;;;2.03;;
60372;SDS011;46216;52.220;5.134;2023-02-28T16:14:26;3.03;;;1.98;;
60372;SDS011;46216;52.220;5.134;2023-02-28T16:16:56;3.15;;;2.13;;
60372;SDS011;46216;52.220;5.134;2023-02-28T16:19:27;3.67;;;2.35;;
60372;SDS011;46216;52.220;5.134;2023-02-28T16:21:52;3.13;;;1.95;;
60372;SDS011;46216;52.220;5.134;2023-02-28T16:24:17;2.88;;;2.17;;
60372;SDS011;46216;52.220;5.134;2023-02-28T16:26:45;2.05;;;1.80;;
60372;SDS011;46216;52.220;5.134;2023-02-28T16:29:19;2.65;;;1.98;;
60372;SDS011;46216;52.220;5.134;2023-02-28T16:31:50;2.95;;;2.10;;
60372;SDS011;46216;52.220;5.134;2023-02-28T16:34:15;3.03;;;1.83;;
60372;SDS011;46216;52.220;5.134;2023-02-28T16:36:40;2.60;;;1.92;;
60372;SDS011;46216;52.220;5.134;2023-02-28T16:39:06;3.03;;;1.90;;
60372;SDS011;46216;52.220;5.134;2023-02-28T16:41:31;3.60;;;2.22;;
60372;SDS011;46216;52.220;5.134;2023-02-28T16:43:59;2.53;;;2.08;;
60372;SDS011;46216;52.220;5.134;2023-02-28T16:46:30;3.58;;;2.15;;
60372;SDS011;46216;52.220;5.134;2023-02-28T16:48:58;2.35;;;1.98;;
60372;SDS011;46216;52.220;5.134;2023-02-28T16:51:24;3.00;;;1.95;;
60372;SDS011;46216;52.220;5.134;2023-02-28T16:53:49;3.70;;;2.30;;
60372;SDS011;46216;52.220;5.134;2023-02-28T16:56:16;2.65;;;1.90;;
60372;SDS011;46216;52.220;5.134;2023-02-28T16:58:43;2.38;;;1.90;;
60372;SDS011;46216;52.220;5.134;2023-02-28T17:01:09;2.85;;;2.15;;
60372;SDS011;46216;52.220;5.134;2023-02-28T17:03:34;3.10;;;2.08;;
60372;SDS011;46216;52.220;5.134;2023-02-28T17:06:01;4.35;;;2.33;;
60372;SDS011;46216;52.220;5.134;2023-02-28T17:08:27;4.00;;;1.88;;
60372;SDS011;46216;52.220;5.134;2023-02-28T17:10:54;4.00;;;2.20;;
60372;SDS011;46216;52.220;5.134;2023-02-28T17:13:19;3.65;;;2.40;;
60372;SDS011;46216;52.220;5.134;2023-02-28T17:15:45;3.30;;;2.10;;
60372;SDS011;46216;52.220;5.134;2023-02-28T17:18:15;3.10;;;2.40;;
60372;SDS011;46216;52.220;5.134;2023-02-28T17:20:44;3.28;;;2.30;;
60372;SDS011;46216;52.220;5.134;2023-02-28T17:23:10;3.33;;;2.20;;
60372;SDS011;46216;52.220;5.134;2023-02-28T17:25:35;3.03;;;2.20;;
60372;SDS011;46216;52.220;5.134;2023-02-28T17:28:01;4.57;;;2.30;;
60372;SDS011;46216;52.220;5.134;2023-02-28T17:30:26;2.30;;;2.10;;